Matsudo, Japan
Current Conditions -  °F | °C
As of 4:30 AM on Friday 28 Nov 2014 (Local Time) from RJTT Reporting Station
Broken Clouds Broken Clouds  
Wind Chill: 57°   Ceiling: 5000
Heat Index: 57°   Visibility: 6mi
Dew Point: 54°   Wind: 3mph
Humidity: 88%   Direction: 60°ENE
Pressure: 30.24"   Gusts: NA
Location:  35.78°N, 139.9°E
Report Text: RJTT 271930Z 06003KT 9999 FEW030 SCT040 BKN050 14/12 Q1024 BECMG 10005KT
Loading
Personal Weather Stations






























Interactive Weather Map New forecast layout! Learn more

10-Day Weather Forecast

Advertisements
Track Severe Weather on mobile